sensor_id;sensor_type;location;lat;lon;timestamp;temperature;humidity
33149;DHT22;19506;51.040;3.856;2023-06-04T05:34:42;18.90;99.90
33149;DHT22;19506;51.040;3.856;2023-06-04T05:37:09;18.90;99.90
33149;DHT22;19506;51.040;3.856;2023-06-04T05:39:34;19.10;99.90
33149;DHT22;19506;51.040;3.856;2023-06-04T05:42:01;19.30;99.90
33149;DHT22;19506;51.040;3.856;2023-06-04T05:44:27;19.50;99.90
33149;DHT22;19506;51.040;3.856;2023-06-04T05:46:52;19.60;99.90
33149;DHT22;19506;51.040;3.856;2023-06-04T05:49:18;19.70;99.90
33149;DHT22;19506;51.040;3.856;2023-06-04T05:51:45;19.90;99.90
33149;DHT22;19506;51.040;3.856;2023-06-04T05:54:10;19.90;99.90
33149;DHT22;19506;51.040;3.856;2023-06-04T05:56:36;19.90;99.90
33149;DHT22;19506;51.040;3.856;2023-06-04T05:59:02;20.00;99.90
33149;DHT22;19506;51.040;3.856;2023-06-04T06:01:27;20.10;99.90
33149;DHT22;19506;51.040;3.856;2023-06-04T06:03:54;20.10;99.90
33149;DHT22;19506;51.040;3.856;2023-06-04T06:06:20;20.10;99.90
33149;DHT22;19506;51.040;3.856;2023-06-04T06:08:46;20.20;99.90
33149;DHT22;19506;51.040;3.856;2023-06-04T06:11:12;20.20;99.90
33149;DHT22;19506;51.040;3.856;2023-06-04T06:13:37;20.30;99.90
33149;DHT22;19506;51.040;3.856;2023-06-04T06:16:03;20.30;99.90
33149;DHT22;19506;51.040;3.856;2023-06-04T06:18:30;20.40;99.90
33149;DHT22;19506;51.040;3.856;2023-06-04T06:20:55;20.40;99.90
33149;DHT22;19506;51.040;3.856;2023-06-04T06:23:21;20.40;99.90
33149;DHT22;19506;51.040;3.856;2023-06-04T06:25:49;20.50;99.90
33149;DHT22;19506;51.040;3.856;2023-06-04T06:28:17;20.60;99.90
33149;DHT22;19506;51.040;3.856;2023-06-04T06:30:43;20.60;99.90
33149;DHT22;19506;51.040;3.856;2023-06-04T06:33:10;20.70;99.90
33149;DHT22;19506;51.040;3.856;2023-06-04T06:35:35;20.60;99.90
33149;DHT22;19506;51.040;3.856;2023-06-04T06:38:01;20.70;99.90
33149;DHT22;19506;51.040;3.856;2023-06-04T06:40:27;20.70;99.90
33149;DHT22;19506;51.040;3.856;2023-06-04T06:42:52;20.70;99.90
33149;DHT22;19506;51.040;3.856;2023-06-04T06:45:19;20.70;99.90
33149;DHT22;19506;51.040;3.856;2023-06-04T06:47:45;20.70;99.90
33149;DHT22;19506;51.040;3.856;2023-06-04T06:50:10;20.80;99.90
33149;DHT22;19506;51.040;3.856;2023-06-04T06:52:37;20.80;99.90
33149;DHT22;19506;51.040;3.856;2023-06-04T06:55:06;20.70;99.90
33149;DHT22;19506;51.040;3.856;2023-06-04T06:57:32;20.70;99.90
33149;DHT22;19506;51.040;3.856;2023-06-04T06:59:58;20.60;99.90
33149;DHT22;19506;51.040;3.856;2023-06-04T07:02:24;20.60;99.90
33149;DHT22;19506;51.040;3.856;2023-06-04T07:04:50;20.60;99.90
33149;DHT22;19506;51.040;3.856;2023-06-04T07:07:16;20.50;99.90
33149;DHT22;19506;51.040;3.856;2023-06-04T07:09:42;20.50;99.90
33149;DHT22;19506;51.040;3.856;2023-06-04T07:12:08;20.50;99.90
33149;DHT22;19506;51.040;3.856;2023-06-04T07:14:34;20.50;99.90
33149;DHT22;19506;51.040;3.856;2023-06-04T07:17:00;20.50;99.90
33149;DHT22;19506;51.040;3.856;2023-06-04T07:19:25;20.50;99.90
33149;DHT22;19506;51.040;3.856;2023-06-04T07:21:54;20.50;99.90
33149;DHT22;19506;51.040;3.856;2023-06-04T07:24:21;20.50;99.90
33149;DHT22;19506;51.040;3.856;2023-06-04T07:26:47;20.50;99.90
33149;DHT22;19506;51.040;3.856;2023-06-04T07:29:13;20.50;99.90
33149;DHT22;19506;51.040;3.856;2023-06-04T07:31:39;20.50;99.90
33149;DHT22;19506;51.040;3.856;2023-06-04T07:34:05;20.40;99.90
33149;DHT22;19506;51.040;3.856;2023-06-04T07:36:30;20.40;99.90
33149;DHT22;19506;51.040;3.856;2023-06-04T07:38:56;20.40;99.90
33149;DHT22;19506;51.040;3.856;2023-06-04T07:41:22;20.40;99.90
33149;DHT22;19506;51.040;3.856;2023-06-04T07:43:48;20.40;99.90
33149;DHT22;19506;51.040;3.856;2023-06-04T07:46:13;20.40;99.90
33149;DHT22;19506;51.040;3.856;2023-06-04T07:48:44;20.40;99.90
33149;DHT22;19506;51.040;3.856;2023-06-04T07:51:10;20.40;99.90
33149;DHT22;19506;51.040;3.856;2023-06-04T07:53:37;20.40;99.90
33149;DHT22;19506;51.040;3.856;2023-06-04T07:56:03;20.40;99.90
33149;DHT22;19506;51.040;3.856;2023-06-04T07:58:29;20.40;99.90
33149;DHT22;19506;51.040;3.856;2023-06-04T08:00:55;20.30;99.90
33149;DHT22;19506;51.040;3.856;2023-06-04T08:03:21;20.30;99.90
33149;DHT22;19506;51.040;3.856;2023-06-04T08:05:47;20.30;99.90
33149;DHT22;19506;51.040;3.856;2023-06-04T08:08:12;20.30;99.90
33149;DHT22;19506;51.040;3.856;2023-06-04T08:10:41;20.30;99.90
33149;DHT22;19506;51.040;3.856;2023-06-04T08:13:07;20.30;99.90
33149;DHT22;19506;51.040;3.856;2023-06-04T08:15:34;20.30;99.90
33149;DHT22;19506;51.040;3.856;2023-06-04T08:18:00;20.30;99.90
33149;DHT22;19506;51.040;3.856;2023-06-04T08:20:25;20.30;99.90
33149;DHT22;19506;51.040;3.856;2023-06-04T08:22:51;20.20;99.90
33149;DHT22;19506;51.040;3.856;2023-06-04T08:25:17;20.30;99.90
33149;DHT22;19506;51.040;3.856;2023-06-04T08:27:43;20.20;99.90
33149;DHT22;19506;51.040;3.856;2023-06-04T08:30:09;20.20;99.90
33149;DHT22;19506;51.040;3.856;2023-06-04T08:32:35;20.30;99.90
33149;DHT22;19506;51.040;3.856;2023-06-04T08:35:00;20.20;99.90
33149;DHT22;19506;51.040;3.856;2023-06-04T08:37:26;20.20;99.90
33149;DHT22;19506;51.040;3.856;2023-06-04T08:39:52;20.20;99.90
33149;DHT22;19506;51.040;3.856;2023-06-04T08:42:31;20.20;99.90
33149;DHT22;19506;51.040;3.856;2023-06-04T08:44:57;20.20;99.90
33149;DHT22;19506;51.040;3.856;2023-06-04T08:47:25;20.20;99.90
33149;DHT22;19506;51.040;3.856;2023-06-04T08:49:58;20.20;99.90
33149;DHT22;19506;51.040;3.856;2023-06-04T08:52:25;20.10;99.90
33149;DHT22;19506;51.040;3.856;2023-06-04T08:54:51;20.10;99.90
33149;DHT22;19506;51.040;3.856;2023-06-04T08:57:21;20.10;99.90
33149;DHT22;19506;51.040;3.856;2023-06-04T08:59:47;20.10;99.90
33149;DHT22;19506;51.040;3.856;2023-06-04T09:02:17;20.10;99.90
33149;DHT22;19506;51.040;3.856;2023-06-04T09:04:43;20.10;99.90
33149;DHT22;19506;51.040;3.856;2023-06-04T09:07:13;20.10;99.90
33149;DHT22;19506;51.040;3.856;2023-06-04T09:09:40;20.00;99.90
33149;DHT22;19506;51.040;3.856;2023-06-04T09:12:17;20.00;99.90
33149;DHT22;19506;51.040;3.856;2023-06-04T09:14:47;20.00;99.90
33149;DHT22;19506;51.040;3.856;2023-06-04T09:17:13;20.00;99.90
33149;DHT22;19506;51.040;3.856;2023-06-04T09:19:40;20.00;99.90
33149;DHT22;19506;51.040;3.856;2023-06-04T09:22:06;20.00;99.90
33149;DHT22;19506;51.040;3.856;2023-06-04T09:24:42;19.90;99.90
33149;DHT22;19506;51.040;3.856;2023-06-04T09:27:16;20.00;99.90
33149;DHT22;19506;51.040;3.856;2023-06-04T09:29:49;19.90;99.90
33149;DHT22;19506;51.040;3.856;2023-06-04T09:32:24;19.90;99.90
33149;DHT22;19506;51.040;3.856;2023-06-04T09:34:49;20.00;99.90
33149;DHT22;19506;51.040;3.856;2023-06-04T09:37:15;19.90;99.90
33149;DHT22;19506;51.040;3.856;2023-06-04T09:39:52;19.90;99.90
33149;DHT22;19506;51.040;3.856;2023-06-04T09:42:19;19.90;99.90
33149;DHT22;19506;51.040;3.856;2023-06-04T09:44:45;19.90;99.90
33149;DHT22;19506;51.040;3.856;2023-06-04T09:47:14;19.90;99.90
33149;DHT22;19506;51.040;3.856;2023-06-04T09:49:48;19.90;99.90
33149;DHT22;19506;51.040;3.856;2023-06-04T09:52:16;19.90;99.90
33149;DHT22;19506;51.040;3.856;2023-06-04T09:54:42;19.90;99.90
33149;DHT22;19506;51.040;3.856;2023-06-04T09:57:16;19.90;99.90
33149;DHT22;19506;51.040;3.856;2023-06-04T09:59:44;19.90;99.90
33149;DHT22;19506;51.040;3.856;2023-06-04T10:02:12;19.90;99.90
33149;DHT22;19506;51.040;3.856;2023-06-04T10:04:41;19.90;99.90
33149;DHT22;19506;51.040;3.856;2023-06-04T10:07:09;19.90;99.90
33149;DHT22;19506;51.040;3.856;2023-06-04T10:09:38;19.90;99.90
33149;DHT22;19506;51.040;3.856;2023-06-04T10:12:13;19.90;99.90
33149;DHT22;19506;51.040;3.856;2023-06-04T10:14:52;20.00;99.90
33149;DHT22;19506;51.040;3.856;2023-06-04T10:17:22;20.00;99.90
33149;DHT22;19506;51.040;3.856;2023-06-04T10:19:49;20.00;99.90
33149;DHT22;19506;51.040;3.856;2023-06-04T10:22:17;20.00;99.90
33149;DHT22;19506;51.040;3.856;2023-06-04T10:24:43;20.00;99.90
33149;DHT22;19506;51.040;3.856;2023-06-04T10:27:11;20.00;99.90
33149;DHT22;19506;51.040;3.856;2023-06-04T10:29:38;19.90;99.90
33149;DHT22;19506;51.040;3.856;2023-06-04T10:32:04;19.90;99.90
33149;DHT22;19506;51.040;3.856;2023-06-04T10:34:30;19.90;99.90
33149;DHT22;19506;51.040;3.856;2023-06-04T10:36:56;19.90;99.90
33149;DHT22;19506;51.040;3.856;2023-06-04T10:39:26;19.90;99.90
33149;DHT22;19506;51.040;3.856;2023-06-04T10:42:03;19.90;99.90
33149;DHT22;19506;51.040;3.856;2023-06-04T10:44:32;19.90;99.90
33149;DHT22;19506;51.040;3.856;2023-06-04T10:46:58;19.90;99.90
33149;DHT22;19506;51.040;3.856;2023-06-04T10:49:28;20.00;99.90
33149;DHT22;19506;51.040;3.856;2023-06-04T10:51:54;20.00;99.90
33149;DHT22;19506;51.040;3.856;2023-06-04T10:54:29;19.90;99.90
33149;DHT22;19506;51.040;3.856;2023-06-04T10:56:55;19.90;99.90
33149;DHT22;19506;51.040;3.856;2023-06-04T10:59:21;19.90;99.90
33149;DHT22;19506;51.040;3.856;2023-06-04T11:01:47;20.00;99.90
33149;DHT22;19506;51.040;3.856;2023-06-04T11:04:23;20.00;99.90
33149;DHT22;19506;51.040;3.856;2023-06-04T11:09:35;20.00;99.90
33149;DHT22;19506;51.040;3.856;2023-06-04T11:12:01;20.00;99.90
33149;DHT22;19506;51.040;3.856;2023-06-04T11:14:28;20.00;99.90
33149;DHT22;19506;51.040;3.856;2023-06-04T11:16:53;20.00;99.90
33149;DHT22;19506;51.040;3.856;2023-06-04T11:19:19;20.00;99.90
33149;DHT22;19506;51.040;3.856;2023-06-04T11:21:45;20.00;99.90
33149;DHT22;19506;51.040;3.856;2023-06-04T11:24:14;20.00;99.90
33149;DHT22;19506;51.040;3.856;2023-06-04T11:26:41;20.00;99.90
33149;DHT22;19506;51.040;3.856;2023-06-04T11:29:09;19.90;99.90
33149;DHT22;19506;51.040;3.856;2023-06-04T11:31:44;19.90;99.90
33149;DHT22;19506;51.040;3.856;2023-06-04T11:34:10;20.00;99.90
33149;DHT22;19506;51.040;3.856;2023-06-04T11:36:39;20.00;99.90
33149;DHT22;19506;51.040;3.856;2023-06-04T11:39:05;20.00;99.90
33149;DHT22;19506;51.040;3.856;2023-06-04T11:41:35;19.90;99.90
33149;DHT22;19506;51.040;3.856;2023-06-04T11:44:03;20.00;99.90
33149;DHT22;19506;51.040;3.856;2023-06-04T11:46:31;20.00;99.90
33149;DHT22;19506;51.040;3.856;2023-06-04T11:48:57;20.00;99.90
33149;DHT22;19506;51.040;3.856;2023-06-04T11:51:23;20.00;99.90
33149;DHT22;19506;51.040;3.856;2023-06-04T11:53:49;20.10;99.90
33149;DHT22;19506;51.040;3.856;2023-06-04T11:56:16;20.10;99.90
33149;DHT22;19506;51.040;3.856;2023-06-04T11:58:43;20.10;99.90
33149;DHT22;19506;51.040;3.856;2023-06-04T12:01:09;20.10;99.90
33149;DHT22;19506;51.040;3.856;2023-06-04T12:03:36;20.10;99.90
33149;DHT22;19506;51.040;3.856;2023-06-04T12:06:16;20.10;99.90
33149;DHT22;19506;51.040;3.856;2023-06-04T12:08:53;20.10;99.90
33149;DHT22;19506;51.040;3.856;2023-06-04T12:11:27;20.10;99.90
33149;DHT22;19506;51.040;3.856;2023-06-04T12:13:57;20.10;99.90
33149;DHT22;19506;51.040;3.856;2023-06-04T12:16:23;20.00;99.90
33149;DHT22;19506;51.040;3.856;2023-06-04T12:18:49;20.10;99.90
33149;DHT22;19506;51.040;3.856;2023-06-04T12:21:21;20.10;99.90
33149;DHT22;19506;51.040;3.856;2023-06-04T12:23:48;20.10;99.90
33149;DHT22;19506;51.040;3.856;2023-06-04T12:26:23;20.10;99.90
33149;DHT22;19506;51.040;3.856;2023-06-04T12:29:01;20.10;99.90
33149;DHT22;19506;51.040;3.856;2023-06-04T12:31:27;20.10;99.90
33149;DHT22;19506;51.040;3.856;2023-06-04T12:34:01;20.10;99.90
33149;DHT22;19506;51.040;3.856;2023-06-04T12:36:27;20.10;99.90
33149;DHT22;19506;51.040;3.856;2023-06-04T12:38:58;20.10;99.90
33149;DHT22;19506;51.040;3.856;2023-06-04T12:41:24;20.10;99.90
33149;DHT22;19506;51.040;3.856;2023-06-04T12:43:51;20.10;99.90
33149;DHT22;19506;51.040;3.856;2023-06-04T12:46:17;20.20;99.90
33149;DHT22;19506;51.040;3.856;2023-06-04T12:48:43;20.20;99.90
33149;DHT22;19506;51.040;3.856;2023-06-04T12:51:09;20.20;99.90
33149;DHT22;19506;51.040;3.856;2023-06-04T12:53:41;20.20;99.90
33149;DHT22;19506;51.040;3.856;2023-06-04T12:56:07;20.20;99.90
33149;DHT22;19506;51.040;3.856;2023-06-04T12:58:33;20.20;99.90
33149;DHT22;19506;51.040;3.856;2023-06-04T13:00:59;20.20;99.90
33149;DHT22;19506;51.040;3.856;2023-06-04T13:03:26;20.20;99.90
33149;DHT22;19506;51.040;3.856;2023-06-04T13:05:52;20.20;99.90
33149;DHT22;19506;51.040;3.856;2023-06-04T13:08:19;20.20;99.90
33149;DHT22;19506;51.040;3.856;2023-06-04T13:10:49;20.20;99.90
33149;DHT22;19506;51.040;3.856;2023-06-04T13:13:16;20.20;99.90
33149;DHT22;19506;51.040;3.856;2023-06-04T13:15:42;20.20;99.90
33149;DHT22;19506;51.040;3.856;2023-06-04T13:18:09;20.20;99.90
33149;DHT22;19506;51.040;3.856;2023-06-04T13:20:36;20.20;99.90
33149;DHT22;19506;51.040;3.856;2023-06-04T13:23:02;20.20;99.90
33149;DHT22;19506;51.040;3.856;2023-06-04T13:25:28;20.20;99.90
33149;DHT22;19506;51.040;3.856;2023-06-04T13:27:54;20.20;99.90
33149;DHT22;19506;51.040;3.856;2023-06-04T13:30:21;20.20;99.90
33149;DHT22;19506;51.040;3.856;2023-06-04T13:32:47;20.20;99.90
33149;DHT22;19506;51.040;3.856;2023-06-04T13:35:13;20.30;99.90
33149;DHT22;19506;51.040;3.856;2023-06-04T13:37:38;20.30;99.90
33149;DHT22;19506;51.040;3.856;2023-06-04T13:40:04;20.30;99.90
33149;DHT22;19506;51.040;3.856;2023-06-04T13:42:30;20.30;99.90
33149;DHT22;19506;51.040;3.856;2023-06-04T13:44:56;20.30;99.90
33149;DHT22;19506;51.040;3.856;2023-06-04T13:47:21;20.30;99.90
33149;DHT22;19506;51.040;3.856;2023-06-04T13:49:47;20.30;99.90
33149;DHT22;19506;51.040;3.856;2023-06-04T13:52:13;20.30;99.90
33149;DHT22;19506;51.040;3.856;2023-06-04T13:54:38;20.40;99.90
33149;DHT22;19506;51.040;3.856;2023-06-04T13:57:05;20.30;99.90
33149;DHT22;19506;51.040;3.856;2023-06-04T13:59:32;20.30;99.90
33149;DHT22;19506;51.040;3.856;2023-06-04T14:01:59;20.30;99.90
33149;DHT22;19506;51.040;3.856;2023-06-04T14:04:25;20.30;99.90
33149;DHT22;19506;51.040;3.856;2023-06-04T14:06:50;20.30;99.90
33149;DHT22;19506;51.040;3.856;2023-06-04T14:09:16;20.30;99.90
33149;DHT22;19506;51.040;3.856;2023-06-04T14:11:42;20.30;99.90
33149;DHT22;19506;51.040;3.856;2023-06-04T14:14:07;20.30;99.90
33149;DHT22;19506;51.040;3.856;2023-06-04T14:16:33;20.30;99.90
33149;DHT22;19506;51.040;3.856;2023-06-04T14:18:59;20.30;99.90
33149;DHT22;19506;51.040;3.856;2023-06-04T14:21:26;20.30;99.90
33149;DHT22;19506;51.040;3.856;2023-06-04T14:33:45;20.40;99.90
33149;DHT22;19506;51.040;3.856;2023-06-04T14:36:11;20.50;99.90
33149;DHT22;19506;51.040;3.856;2023-06-04T14:38:36;20.50;99.90
33149;DHT22;19506;51.040;3.856;2023-06-04T14:41:02;20.50;99.90
33149;DHT22;19506;51.040;3.856;2023-06-04T14:43:28;20.50;99.90
33149;DHT22;19506;51.040;3.856;2023-06-04T14:45:54;20.50;99.90
33149;DHT22;19506;51.040;3.856;2023-06-04T14:48:19;20.50;99.90
33149;DHT22;19506;51.040;3.856;2023-06-04T14:50:45;20.50;99.90
33149;DHT22;19506;51.040;3.856;2023-06-04T14:53:12;20.50;99.90
33149;DHT22;19506;51.040;3.856;2023-06-04T14:55:38;20.50;99.90
33149;DHT22;19506;51.040;3.856;2023-06-04T14:58:04;20.40;99.90
33149;DHT22;19506;51.040;3.856;2023-06-04T15:00:30;20.50;99.90
33149;DHT22;19506;51.040;3.856;2023-06-04T15:02:57;20.50;99.90
33149;DHT22;19506;51.040;3.856;2023-06-04T15:05:23;20.50;99.90
33149;DHT22;19506;51.040;3.856;2023-06-04T15:07:49;20.50;99.90
33149;DHT22;19506;51.040;3.856;2023-06-04T15:10:15;20.50;99.90
33149;DHT22;19506;51.040;3.856;2023-06-04T15:12:40;20.50;99.90
33149;DHT22;19506;51.040;3.856;2023-06-04T15:15:07;20.50;99.90
33149;DHT22;19506;51.040;3.856;2023-06-04T15:17:34;20.60;99.90
33149;DHT22;19506;51.040;3.856;2023-06-04T15:20:00;20.60;99.90
33149;DHT22;19506;51.040;3.856;2023-06-04T15:22:25;20.60;99.90
33149;DHT22;19506;51.040;3.856;2023-06-04T15:24:52;20.60;99.90
33149;DHT22;19506;51.040;3.856;2023-06-04T15:27:18;20.60;99.90
33149;DHT22;19506;51.040;3.856;2023-06-04T15:29:44;20.60;99.90
33149;DHT22;19506;51.040;3.856;2023-06-04T15:32:10;20.60;99.90
33149;DHT22;19506;51.040;3.856;2023-06-04T15:34:36;20.60;99.90
33149;DHT22;19506;51.040;3.856;2023-06-04T15:37:01;20.60;99.90
33149;DHT22;19506;51.040;3.856;2023-06-04T15:39:27;20.60;99.90
33149;DHT22;19506;51.040;3.856;2023-06-04T15:41:53;20.60;99.90
33149;DHT22;19506;51.040;3.856;2023-06-04T15:44:18;20.60;99.90
33149;DHT22;19506;51.040;3.856;2023-06-04T15:46:44;20.60;99.90
33149;DHT22;19506;51.040;3.856;2023-06-04T15:49:10;20.60;99.90
33149;DHT22;19506;51.040;3.856;2023-06-04T15:51:36;20.60;99.90
33149;DHT22;19506;51.040;3.856;2023-06-04T15:54:02;20.60;99.90
33149;DHT22;19506;51.040;3.856;2023-06-04T15:56:30;20.60;99.90
33149;DHT22;19506;51.040;3.856;2023-06-04T15:58:56;20.50;99.90
33149;DHT22;19506;51.040;3.856;2023-06-04T16:01:22;20.50;99.90
33149;DHT22;19506;51.040;3.856;2023-06-04T16:03:48;20.60;99.90
33149;DHT22;19506;51.040;3.856;2023-06-04T16:06:14;20.50;99.90
33149;DHT22;19506;51.040;3.856;2023-06-04T16:08:40;20.50;99.90
33149;DHT22;19506;51.040;3.856;2023-06-04T16:11:08;20.60;99.90
33149;DHT22;19506;51.040;3.856;2023-06-04T16:13:34;20.60;99.90
33149;DHT22;19506;51.040;3.856;2023-06-04T16:16:00;20.60;99.90
33149;DHT22;19506;51.040;3.856;2023-06-04T16:18:28;20.60;99.90
33149;DHT22;19506;51.040;3.856;2023-06-04T16:20:55;20.60;99.90
33149;DHT22;19506;51.040;3.856;2023-06-04T16:23:21;20.60;99.90
33149;DHT22;19506;51.040;3.856;2023-06-04T16:25:47;20.60;99.90
33149;DHT22;19506;51.040;3.856;2023-06-04T16:28:13;20.60;99.90
33149;DHT22;19506;51.040;3.856;2023-06-04T16:30:39;20.60;99.90
33149;DHT22;19506;51.040;3.856;2023-06-04T16:33:05;20.60;99.90
33149;DHT22;19506;51.040;3.856;2023-06-04T16:35:31;20.60;99.90
33149;DHT22;19506;51.040;3.856;2023-06-04T16:37:58;20.60;99.90
33149;DHT22;19506;51.040;3.856;2023-06-04T16:40:24;20.60;99.90
33149;DHT22;19506;51.040;3.856;2023-06-04T16:42:49;20.50;99.90
33149;DHT22;19506;51.040;3.856;2023-06-04T16:45:16;20.50;99.90
33149;DHT22;19506;51.040;3.856;2023-06-04T16:47:41;20.60;99.90
33149;DHT22;19506;51.040;3.856;2023-06-04T16:50:08;20.60;99.90
33149;DHT22;19506;51.040;3.856;2023-06-04T16:52:34;20.60;99.90
33149;DHT22;19506;51.040;3.856;2023-06-04T16:55:01;20.60;99.90
33149;DHT22;19506;51.040;3.856;2023-06-04T16:57:27;20.60;99.90
33149;DHT22;19506;51.040;3.856;2023-06-04T16:59:53;20.60;99.90
33149;DHT22;19506;51.040;3.856;2023-06-04T17:02:19;20.60;99.90
33149;DHT22;19506;51.040;3.856;2023-06-04T17:04:45;20.60;99.90
33149;DHT22;19506;51.040;3.856;2023-06-04T17:07:11;20.60;99.90
33149;DHT22;19506;51.040;3.856;2023-06-04T17:09:37;20.60;99.90
33149;DHT22;19506;51.040;3.856;2023-06-04T17:12:03;20.60;99.90
33149;DHT22;19506;51.040;3.856;2023-06-04T17:14:29;20.60;99.90
33149;DHT22;19506;51.040;3.856;2023-06-04T17:16:55;20.60;99.90
33149;DHT22;19506;51.040;3.856;2023-06-04T17:19:21;20.60;99.90
33149;DHT22;19506;51.040;3.856;2023-06-04T17:21:46;20.60;99.90
33149;DHT22;19506;51.040;3.856;2023-06-04T17:24:12;20.60;99.90
33149;DHT22;19506;51.040;3.856;2023-06-04T17:26:38;20.60;99.90
33149;DHT22;19506;51.040;3.856;2023-06-04T17:29:04;20.60;99.90
33149;DHT22;19506;51.040;3.856;2023-06-04T17:31:30;20.60;99.90
33149;DHT22;19506;51.040;3.856;2023-06-04T17:33:56;20.70;99.90
33149;DHT22;19506;51.040;3.856;2023-06-04T17:36:21;20.70;99.90
33149;DHT22;19506;51.040;3.856;2023-06-04T17:38:48;20.70;99.90
33149;DHT22;19506;51.040;3.856;2023-06-04T17:41:14;20.70;99.90
33149;DHT22;19506;51.040;3.856;2023-06-04T17:43:41;20.70;99.90
33149;DHT22;19506;51.040;3.856;2023-06-04T17:46:08;20.60;99.90
33149;DHT22;19506;51.040;3.856;2023-06-04T17:48:33;20.70;99.90
33149;DHT22;19506;51.040;3.856;2023-06-04T17:50:59;20.60;99.90
33149;DHT22;19506;51.040;3.856;2023-06-04T17:53:25;20.60;99.90
33149;DHT22;19506;51.040;3.856;2023-06-04T17:55:51;20.60;99.90
33149;DHT22;19506;51.040;3.856;2023-06-04T17:58:16;20.70;99.90
33149;DHT22;19506;51.040;3.856;2023-06-04T18:00:42;20.60;99.90
33149;DHT22;19506;51.040;3.856;2023-06-04T18:03:10;20.60;99.90
33149;DHT22;19506;51.040;3.856;2023-06-04T18:05:37;20.70;99.90
33149;DHT22;19506;51.040;3.856;2023-06-04T18:08:04;20.70;99.90
33149;DHT22;19506;51.040;3.856;2023-06-04T18:10:30;20.80;99.90
33149;DHT22;19506;51.040;3.856;2023-06-04T18:12:55;20.80;99.90
33149;DHT22;19506;51.040;3.856;2023-06-04T18:15:21;20.90;99.90
33149;DHT22;19506;51.040;3.856;2023-06-04T18:17:47;20.90;99.90
33149;DHT22;19506;51.040;3.856;2023-06-04T18:20:13;20.90;99.90
33149;DHT22;19506;51.040;3.856;2023-06-04T18:22:39;21.00;99.90
33149;DHT22;19506;51.040;3.856;2023-06-04T18:25:05;21.00;99.90
33149;DHT22;19506;51.040;3.856;2023-06-04T18:27:35;21.10;99.90
33149;DHT22;19506;51.040;3.856;2023-06-04T18:30:01;21.00;99.90
33149;DHT22;19506;51.040;3.856;2023-06-04T18:32:27;21.00;99.90
33149;DHT22;19506;51.040;3.856;2023-06-04T18:34:53;21.00;99.90
33149;DHT22;19506;51.040;3.856;2023-06-04T18:37:18;21.10;99.90
33149;DHT22;19506;51.040;3.856;2023-06-04T18:39:44;21.10;99.90
33149;DHT22;19506;51.040;3.856;2023-06-04T18:42:10;21.10;99.90
33149;DHT22;19506;51.040;3.856;2023-06-04T18:44:36;21.00;99.90
33149;DHT22;19506;51.040;3.856;2023-06-04T18:47:02;21.00;99.90
33149;DHT22;19506;51.040;3.856;2023-06-04T18:49:30;21.00;99.90
33149;DHT22;19506;51.040;3.856;2023-06-04T18:51:56;21.00;99.90
33149;DHT22;19506;51.040;3.856;2023-06-04T18:54:22;20.90;99.90
33149;DHT22;19506;51.040;3.856;2023-06-04T18:56:48;21.00;99.90
33149;DHT22;19506;51.040;3.856;2023-06-04T18:59:15;21.00;99.90
33149;DHT22;19506;51.040;3.856;2023-06-04T19:01:41;20.90;99.90
33149;DHT22;19506;51.040;3.856;2023-06-04T19:04:07;21.00;99.90
33149;DHT22;19506;51.040;3.856;2023-06-04T19:06:34;21.00;99.90
33149;DHT22;19506;51.040;3.856;2023-06-04T19:09:00;21.00;99.90
33149;DHT22;19506;51.040;3.856;2023-06-04T19:11:27;21.00;99.90
33149;DHT22;19506;51.040;3.856;2023-06-04T19:13:53;21.00;99.90
33149;DHT22;19506;51.040;3.856;2023-06-04T19:16:18;21.00;99.90
33149;DHT22;19506;51.040;3.856;2023-06-04T19:18:44;21.00;99.90
33149;DHT22;19506;51.040;3.856;2023-06-04T19:21:11;21.00;99.90
33149;DHT22;19506;51.040;3.856;2023-06-04T19:23:37;21.00;99.90
33149;DHT22;19506;51.040;3.856;2023-06-04T19:26:03;21.00;99.90
33149;DHT22;19506;51.040;3.856;2023-06-04T19:28:28;21.00;99.90
33149;DHT22;19506;51.040;3.856;2023-06-04T19:30:54;21.00;99.90
33149;DHT22;19506;51.040;3.856;2023-06-04T19:33:20;21.10;99.90
33149;DHT22;19506;51.040;3.856;2023-06-04T19:35:46;21.20;99.90
33149;DHT22;19506;51.040;3.856;2023-06-04T19:38:14;21.30;99.90
33149;DHT22;19506;51.040;3.856;2023-06-04T19:40:40;21.30;99.90
33149;DHT22;19506;51.040;3.856;2023-06-04T19:43:06;21.40;99.90
33149;DHT22;19506;51.040;3.856;2023-06-04T19:45:31;21.50;99.90
33149;DHT22;19506;51.040;3.856;2023-06-04T19:47:57;21.60;99.90
33149;DHT22;19506;51.040;3.856;2023-06-04T19:50:24;21.60;99.90
33149;DHT22;19506;51.040;3.856;2023-06-04T19:52:50;21.60;99.90
33149;DHT22;19506;51.040;3.856;2023-06-04T19:55:16;21.50;99.90
33149;DHT22;19506;51.040;3.856;2023-06-04T20:00:10;21.70;99.90
33149;DHT22;19506;51.040;3.856;2023-06-04T20:02:37;21.70;99.90
33149;DHT22;19506;51.040;3.856;2023-06-04T20:07:29;21.70;99.90
33149;DHT22;19506;51.040;3.856;2023-06-04T20:14:48;22.00;99.90
33149;DHT22;19506;51.040;3.856;2023-06-04T20:17:14;21.90;99.90
33149;DHT22;19506;51.040;3.856;2023-06-04T20:19:40;21.90;99.90
33149;DHT22;19506;51.040;3.856;2023-06-04T20:22:06;22.10;99.90
33149;DHT22;19506;51.040;3.856;2023-06-04T20:24:34;22.20;99.90
33149;DHT22;19506;51.040;3.856;2023-06-04T20:27:00;22.20;99.90
33149;DHT22;19506;51.040;3.856;2023-06-04T20:29:26;22.10;99.90
33149;DHT22;19506;51.040;3.856;2023-06-04T20:31:55;22.10;99.90
33149;DHT22;19506;51.040;3.856;2023-06-04T20:34:20;22.10;99.90
33149;DHT22;19506;51.040;3.856;2023-06-04T20:36:48;22.10;99.90
33149;DHT22;19506;51.040;3.856;2023-06-04T20:39:13;22.30;99.90
33149;DHT22;19506;51.040;3.856;2023-06-04T20:41:40;22.30;99.90
33149;DHT22;19506;51.040;3.856;2023-06-04T20:44:06;22.40;99.90
33149;DHT22;19506;51.040;3.856;2023-06-04T20:46:32;22.40;99.90
33149;DHT22;19506;51.040;3.856;2023-06-04T20:48:58;22.30;99.90
33149;DHT22;19506;51.040;3.856;2023-06-04T20:51:24;22.20;99.90
33149;DHT22;19506;51.040;3.856;2023-06-04T20:53:49;22.20;99.90
33149;DHT22;19506;51.040;3.856;2023-06-04T20:56:16;22.20;99.90
33149;DHT22;19506;51.040;3.856;2023-06-04T20:58:42;22.20;99.90
